Beaufort Belle — WBC3029 — position and weather

sailwx.info

Track history (hours):
 
Tides and Currents Weather Stations Pressure Air Temp Water Temp Dewpoint Dewpoint Depression Visibility Wind Speed Wind Dir Waves Ship Positions

Beaufort Belle

Owner: PCS Phosphate, AURORA, NC. More information available from US FCC via Universal Licensing System and Coast Guard Vessel Documentation Center.

Last reported at 2017-Oct-18 02:00 UTC. Time now 2017-Oct-18 02:06 UTC.
Position N 34°43' W 076°41'.

Length 30 m; draft 3.5 m.

Type: Tug. MMSI: 367141430.

Date/timePositionNaut miles runAvg speedWind from/ knotsBaromVisibWave heightAir tempDewpointWater temp
2017-Oct-18 02:00N 34°43' W 076°41'0 0.0
2017-Oct-18 01:31N 34°43' W 076°41'0 0.0
2017-Oct-18 01:01N 34°43' W 076°41'0 0.0
2017-Oct-18 00:30N 34°43' W 076°41'1 1.7
2017-Oct-18 00:01N 34°44' W 076°42'3 6.6
2017-Oct-17 23:31N 34°47' W 076°41'3 6.5
2017-Oct-17 23:00N 34°50' W 076°41'3 6.5
2017-Oct-17 22:31N 34°53' W 076°41'3 6.6
2017-Oct-17 22:00N 34°56' W 076°39'3 6.5
2017-Oct-17 21:31N 34°59' W 076°41'4 7.9
2017-Oct-17 21:00N 35°02' W 076°37'4 8.0
2017-Oct-17 20:29N 35°04' W 076°33'9 0.3
2017-Oct-16 17:01N 34°57' W 076°40'0 6.5
2017-Oct-16 17:00N 34°57' W 076°40'3 5.2
2017-Oct-16 16:30N 34°54' W 076°40'2 4.3
2017-Oct-16 16:01N 34°53' W 076°42'2 4.8
2017-Oct-16 15:30N 34°50' W 076°41'2 5.0
2017-Oct-16 15:00N 34°48' W 076°41'3 5.2
2017-Oct-16 14:31N 34°45' W 076°40'2 2.2
2017-Oct-16 13:30N 34°43' W 076°42'0 0.0
2017-Oct-16 13:01N 34°43' W 076°42'0 0.0
2017-Oct-16 12:30N 34°43' W 076°42'0 0.0
2017-Oct-16 12:00N 34°43' W 076°42'0 0.0
2017-Oct-16 11:31N 34°43' W 076°42'0 0.0
2017-Oct-16 11:00N 34°43' W 076°42'0 0.0
2017-Oct-16 10:31N 34°43' W 076°42'0 0.0
2017-Oct-16 10:01N 34°43' W 076°42'0 0.0
2017-Oct-16 09:30N 34°43' W 076°42'0 0.0
2017-Oct-16 09:00N 34°43' W 076°42'0 0.0
2017-Oct-16 08:31N 34°43' W 076°42'0 0.0
2017-Oct-16 08:01N 34°43' W 076°42'0 0.0
2017-Oct-16 07:31N 34°43' W 076°42'0 0.0
2017-Oct-16 07:01N 34°43' W 076°42'1 1.2
2017-Oct-16 06:31N 34°43' W 076°41'0 0.0
2017-Oct-16 06:01N 34°43' W 076°41'1 1.3
2017-Oct-16 05:31N 34°43' W 076°42'3 6.5
2017-Oct-16 05:00N 34°47' W 076°41'4 8.2
2017-Oct-16 04:31N 34°51' W 076°41'4 7.2
2017-Oct-16 04:01N 34°54' W 076°40'3 6.2
2017-Oct-16 03:30N 34°57' W 076°41'3 6.5
2017-Oct-16 03:01N 35°00' W 076°40'4 7.7
2017-Oct-16 02:30N 35°03' W 076°36'4 7.6
2017-Oct-16 02:00N 35°05' W 076°33'4 7.6
2017-Oct-16 01:31N 35°08' W 076°30'4 7.0
2017-Oct-16 00:58N 35°11' W 076°34'17 0.7
2017-Oct-14 23:36N 34°55' W 076°40'1 6.6
2017-Oct-14 23:26N 34°54' W 076°40'3 6.2
2017-Oct-14 23:00N 34°52' W 076°41'4 7.2
2017-Oct-14 22:30N 34°48' W 076°41'3 6.4
2017-Oct-14 22:01N 34°45' W 076°41'2 4.5
2017-Oct-14 21:30N 34°43' W 076°41'1 1.2
2017-Oct-14 21:01N 34°43' W 076°42'0 0.0
2017-Oct-14 20:30N 34°43' W 076°42'0 0.0
2017-Oct-14 20:01N 34°43' W 076°42'0 0.0
2017-Oct-14 19:31N 34°43' W 076°42'0 0.0
2017-Oct-14 19:00N 34°43' W 076°42'0 0.0
2017-Oct-14 18:31N 34°43' W 076°42'0 0.0
2017-Oct-14 18:00N 34°43' W 076°42'0 0.0
2017-Oct-14 17:31N 34°43' W 076°42'0 0.0
2017-Oct-14 17:00N 34°43' W 076°42'0 0.0
2017-Oct-14 16:30N 34°43' W 076°42'0 0.0
2017-Oct-14 16:01N 34°43' W 076°42'0 0.0
2017-Oct-14 15:30N 34°43' W 076°42'0 0.0
2017-Oct-14 15:01N 34°43' W 076°42'1 1.2
2017-Oct-14 14:31N 34°43' W 076°41'3 5.7
2017-Oct-14 14:00N 34°46' W 076°40'4 8.1
2017-Oct-14 13:30N 34°50' W 076°41'4 8.2
2017-Oct-14 13:01N 34°54' W 076°41'3 6.5
2017-Oct-14 12:30N 34°57' W 076°40'3 6.3
2017-Oct-14 12:00N 34°60' W 076°41'4 8.1
2017-Oct-14 11:31N 35°02' W 076°37'4 7.9
2017-Oct-14 11:00N 35°04' W 076°33'10 0.3
2017-Oct-12 20:13N 34°57' W 076°40'1 6.8
2017-Oct-12 20:00N 34°56' W 076°39'3 6.6
2017-Oct-12 19:30N 34°53' W 076°41'4 7.4
2017-Oct-12 19:01N 34°50' W 076°41'4 7.1
2017-Oct-12 18:30N 34°46' W 076°41'3 6.5
2017-Oct-12 18:00N 34°43' W 076°42'1 1.1
2017-Oct-12 17:30N 34°43' W 076°42'0 0.0
2017-Oct-12 17:00N 34°43' W 076°42'0 0.0
2017-Oct-12 16:30N 34°43' W 076°42'0 0.0
2017-Oct-12 16:01N 34°43' W 076°42'0 0.0
2017-Oct-12 15:31N 34°43' W 076°42'0 0.0
2017-Oct-12 15:00N 34°43' W 076°42'0 0.0
2017-Oct-12 14:30N 34°43' W 076°42'0 0.0
2017-Oct-12 14:01N 34°43' W 076°42'0 0.0
2017-Oct-12 13:31N 34°43' W 076°42'0 0.0
2017-Oct-12 13:01N 34°43' W 076°42'0 0.0
2017-Oct-12 12:31N 34°43' W 076°42'0 0.0
2017-Oct-12 12:01N 34°43' W 076°42'0 0.0
2017-Oct-12 11:31N 34°43' W 076°42'0 0.0
2017-Oct-12 11:00N 34°43' W 076°42'0 0.4
2017-Oct-12 10:31N 34°43' W 076°42'0 0.8
2017-Oct-12 10:01N 34°43' W 076°41'0 0.0
2017-Oct-12 09:31N 34°43' W 076°41'0 0.0
2017-Oct-12 09:01N 34°43' W 076°41'0 0.0
2017-Oct-12 08:30N 34°43' W 076°41'0 0.0
2017-Oct-12 08:00N 34°43' W 076°41'0 0.0
2017-Oct-12 07:31N 34°43' W 076°41'0 0.0
2017-Oct-12 07:01N 34°43' W 076°41'0 0.0
2017-Oct-12 06:31N 34°43' W 076°41'2 4.6
2017-Oct-12 06:01N 34°45' W 076°41'3 6.5
2017-Oct-12 05:30N 34°48' W 076°41'3 6.1
2017-Oct-12 05:01N 34°51' W 076°41'3 5.8
2017-Oct-12 04:30N 34°54' W 076°41'3 5.9
2017-Oct-12 04:00N 34°57' W 076°40'3 6.1
2017-Oct-12 03:30N 34°60' W 076°41'4 7.7
2017-Oct-12 02:59N 35°02' W 076°37'4 7.7
2017-Oct-12 02:30N 35°04' W 076°33'4 7.6
2017-Oct-12 02:00N 35°08' W 076°30'8 6.7
2017-Oct-12 00:52N 35°14' W 076°35'18 0.5
2017-Oct-10 11:23N 34°57' W 076°40'3 5.4
2017-Oct-10 10:55N 34°54' W 076°40'2 4.8
2017-Oct-10 10:30N 34°53' W 076°42'3 5.3
2017-Oct-10 10:01N 34°50' W 076°41'3 5.2
2017-Oct-10 09:31N 34°47' W 076°41'3 5.3
2017-Oct-10 09:01N 34°45' W 076°41'2 3.2
2017-Oct-10 08:30N 34°43' W 076°42'0 0.0
2017-Oct-10 08:01N 34°43' W 076°42'1 1.1
2017-Oct-10 07:30N 34°44' W 076°42'3 6.0
2017-Oct-10 07:00N 34°47' W 076°41'3 5.5
2017-Oct-10 06:30N 34°50' W 076°41'3 5.0
2017-Oct-10 06:01N 34°52' W 076°42'2 4.3
2017-Oct-10 05:30N 34°54' W 076°41'2 5.0
2017-Oct-10 05:00N 34°56' W 076°39'3 5.9
2017-Oct-10 04:30N 34°59' W 076°42'3 5.9
2017-Oct-10 04:00N 35°01' W 076°39'4 7.0
2017-Oct-10 03:29N 35°03' W 076°36'3 6.9
2017-Oct-10 03:00N 35°05' W 076°32'10 0.5
2017-Oct-09 05:54N 34°58' W 076°41'3 6.9
2017-Oct-09 05:29N 34°56' W 076°39'4 7.2
2017-Oct-09 05:00N 34°52' W 076°41'4 8.2
2017-Oct-09 04:30N 34°48' W 076°41'4 7.2
2017-Oct-09 04:01N 34°45' W 076°41'2 3.5
2017-Oct-09 03:30N 34°43' W 076°42'0 0.0
2017-Oct-09 03:00N 34°43' W 076°42'0 0.1
2017-Oct-09 02:31N 34°43' W 076°42'0 0.0
2017-Oct-09 02:01N 34°43' W 076°42'0 0.0
2017-Oct-09 01:31N 34°43' W 076°42'0 0.0
2017-Oct-09 01:01N 34°43' W 076°42'0 0.0
2017-Oct-09 00:30N 34°43' W 076°42'0 0.0
2017-Oct-09 00:00N 34°43' W 076°42'0 0.0
2017-Oct-08 23:31N 34°43' W 076°42'0 0.0
2017-Oct-08 23:00N 34°43' W 076°42'0 0.0
2017-Oct-08 22:31N 34°43' W 076°42'0 0.0
2017-Oct-08 22:01N 34°43' W 076°42'0 0.0
2017-Oct-08 21:31N 34°43' W 076°42'0 0.0
2017-Oct-08 21:00N 34°43' W 076°42'0 0.0
2017-Oct-08 20:30N 34°43' W 076°42'0 0.0
2017-Oct-08 20:01N 34°43' W 076°42'0 0.0
2017-Oct-08 19:31N 34°43' W 076°42'3 5.0
2017-Oct-08 19:01N 34°46' W 076°41'3 5.6
2017-Oct-08 18:31N 34°48' W 076°41'2 4.8
2017-Oct-08 18:01N 34°51' W 076°41'2 4.5
2017-Oct-08 17:30N 34°53' W 076°41'2 4.1
2017-Oct-08 17:01N 34°55' W 076°40'2 4.7
2017-Oct-08 16:30N 34°57' W 076°40'2 4.8
2017-Oct-08 16:00N 34°59' W 076°41'3 6.6
2017-Oct-08 15:30N 35°02' W 076°38'  
Track history (hours):
 
Tides and Currents Weather Stations Pressure Air Temp Water Temp Dewpoint Dewpoint Depression Visibility Wind Speed Wind Dir Waves Ship Positions

Beaufort Belle

Owner: PCS Phosphate, AURORA, NC. More information available from US FCC via Universal Licensing System and Coast Guard Vessel Documentation Center.

Last reported at 2017-Oct-18 02:00 UTC. Time now 2017-Oct-18 02:06 UTC.
Position N 34°43' W 076°41'.

Length 30 m; draft 3.5 m.

Type: Tug. MMSI: 367141430.

Date/timePositionNaut miles runAvg speedWind from/ knotsBaromVisibWave heightAir tempDewpointWater temp
2017-Oct-18 02:00N 34°43' W 076°41'0 0.0
2017-Oct-18 01:31N 34°43' W 076°41'0 0.0
2017-Oct-18 01:01N 34°43' W 076°41'0 0.0
2017-Oct-18 00:30N 34°43' W 076°41'1 1.7
2017-Oct-18 00:01N 34°44' W 076°42'3 6.6
2017-Oct-17 23:31N 34°47' W 076°41'3 6.5
2017-Oct-17 23:00N 34°50' W 076°41'3 6.5
2017-Oct-17 22:31N 34°53' W 076°41'3 6.6
2017-Oct-17 22:00N 34°56' W 076°39'3 6.5
2017-Oct-17 21:31N 34°59' W 076°41'4 7.9
2017-Oct-17 21:00N 35°02' W 076°37'4 8.0
2017-Oct-17 20:29N 35°04' W 076°33'9 0.3
2017-Oct-16 17:01N 34°57' W 076°40'0 6.5
2017-Oct-16 17:00N 34°57' W 076°40'3 5.2
2017-Oct-16 16:30N 34°54' W 076°40'2 4.3
2017-Oct-16 16:01N 34°53' W 076°42'2 4.8
2017-Oct-16 15:30N 34°50' W 076°41'2 5.0
2017-Oct-16 15:00N 34°48' W 076°41'3 5.2
2017-Oct-16 14:31N 34°45' W 076°40'2 2.2
2017-Oct-16 13:30N 34°43' W 076°42'0 0.0
2017-Oct-16 13:01N 34°43' W 076°42'0 0.0
2017-Oct-16 12:30N 34°43' W 076°42'0 0.0
2017-Oct-16 12:00N 34°43' W 076°42'0 0.0
2017-Oct-16 11:31N 34°43' W 076°42'0 0.0
2017-Oct-16 11:00N 34°43' W 076°42'0 0.0
2017-Oct-16 10:31N 34°43' W 076°42'0 0.0
2017-Oct-16 10:01N 34°43' W 076°42'0 0.0
2017-Oct-16 09:30N 34°43' W 076°42'0 0.0
2017-Oct-16 09:00N 34°43' W 076°42'0 0.0
2017-Oct-16 08:31N 34°43' W 076°42'0 0.0
2017-Oct-16 08:01N 34°43' W 076°42'0 0.0
2017-Oct-16 07:31N 34°43' W 076°42'0 0.0
2017-Oct-16 07:01N 34°43' W 076°42'1 1.2
2017-Oct-16 06:31N 34°43' W 076°41'0 0.0
2017-Oct-16 06:01N 34°43' W 076°41'1 1.3
2017-Oct-16 05:31N 34°43' W 076°42'3 6.5
2017-Oct-16 05:00N 34°47' W 076°41'4 8.2
2017-Oct-16 04:31N 34°51' W 076°41'4 7.2
2017-Oct-16 04:01N 34°54' W 076°40'3 6.2
2017-Oct-16 03:30N 34°57' W 076°41'3 6.5
2017-Oct-16 03:01N 35°00' W 076°40'4 7.7
2017-Oct-16 02:30N 35°03' W 076°36'4 7.6
2017-Oct-16 02:00N 35°05' W 076°33'4 7.6
2017-Oct-16 01:31N 35°08' W 076°30'4 7.0
2017-Oct-16 00:58N 35°11' W 076°34'17 0.7
2017-Oct-14 23:36N 34°55' W 076°40'1 6.6
2017-Oct-14 23:26N 34°54' W 076°40'3 6.2
2017-Oct-14 23:00N 34°52' W 076°41'4 7.2
2017-Oct-14 22:30N 34°48' W 076°41'3 6.4
2017-Oct-14 22:01N 34°45' W 076°41'2 4.5
2017-Oct-14 21:30N 34°43' W 076°41'1 1.2
2017-Oct-14 21:01N 34°43' W 076°42'0 0.0
2017-Oct-14 20:30N 34°43' W 076°42'0 0.0
2017-Oct-14 20:01N 34°43' W 076°42'0 0.0
2017-Oct-14 19:31N 34°43' W 076°42'0 0.0
2017-Oct-14 19:00N 34°43' W 076°42'0 0.0
2017-Oct-14 18:31N 34°43' W 076°42'0 0.0
2017-Oct-14 18:00N 34°43' W 076°42'0 0.0
2017-Oct-14 17:31N 34°43' W 076°42'0 0.0
2017-Oct-14 17:00N 34°43' W 076°42'0 0.0
2017-Oct-14 16:30N 34°43' W 076°42'0 0.0
2017-Oct-14 16:01N 34°43' W 076°42'0 0.0
2017-Oct-14 15:30N 34°43' W 076°42'0 0.0
2017-Oct-14 15:01N 34°43' W 076°42'1 1.2
2017-Oct-14 14:31N 34°43' W 076°41'3 5.7
2017-Oct-14 14:00N 34°46' W 076°40'4 8.1
2017-Oct-14 13:30N 34°50' W 076°41'4 8.2
2017-Oct-14 13:01N 34°54' W 076°41'3 6.5
2017-Oct-14 12:30N 34°57' W 076°40'3 6.3
2017-Oct-14 12:00N 34°60' W 076°41'4 8.1
2017-Oct-14 11:31N 35°02' W 076°37'4 7.9
2017-Oct-14 11:00N 35°04' W 076°33'10 0.3
2017-Oct-12 20:13N 34°57' W 076°40'1 6.8
2017-Oct-12 20:00N 34°56' W 076°39'3 6.6
2017-Oct-12 19:30N 34°53' W 076°41'4 7.4
2017-Oct-12 19:01N 34°50' W 076°41'4 7.1
2017-Oct-12 18:30N 34°46' W 076°41'3 6.5
2017-Oct-12 18:00N 34°43' W 076°42'1 1.1
2017-Oct-12 17:30N 34°43' W 076°42'0 0.0
2017-Oct-12 17:00N 34°43' W 076°42'0 0.0
2017-Oct-12 16:30N 34°43' W 076°42'0 0.0
2017-Oct-12 16:01N 34°43' W 076°42'0 0.0
2017-Oct-12 15:31N 34°43' W 076°42'0 0.0
2017-Oct-12 15:00N 34°43' W 076°42'0 0.0
2017-Oct-12 14:30N 34°43' W 076°42'0 0.0
2017-Oct-12 14:01N 34°43' W 076°42'0 0.0
2017-Oct-12 13:31N 34°43' W 076°42'0 0.0
2017-Oct-12 13:01N 34°43' W 076°42'0 0.0
2017-Oct-12 12:31N 34°43' W 076°42'0 0.0
2017-Oct-12 12:01N 34°43' W 076°42'0 0.0
2017-Oct-12 11:31N 34°43' W 076°42'0 0.0
2017-Oct-12 11:00N 34°43' W 076°42'0 0.4
2017-Oct-12 10:31N 34°43' W 076°42'0 0.8
2017-Oct-12 10:01N 34°43' W 076°41'0 0.0
2017-Oct-12 09:31N 34°43' W 076°41'0 0.0
2017-Oct-12 09:01N 34°43' W 076°41'0 0.0
2017-Oct-12 08:30N 34°43' W 076°41'0 0.0
2017-Oct-12 08:00N 34°43' W 076°41'0 0.0
2017-Oct-12 07:31N 34°43' W 076°41'0 0.0
2017-Oct-12 07:01N 34°43' W 076°41'0 0.0
2017-Oct-12 06:31N 34°43' W 076°41'2 4.6
2017-Oct-12 06:01N 34°45' W 076°41'3 6.5
2017-Oct-12 05:30N 34°48' W 076°41'3 6.1
2017-Oct-12 05:01N 34°51' W 076°41'3 5.8
2017-Oct-12 04:30N 34°54' W 076°41'3 5.9
2017-Oct-12 04:00N 34°57' W 076°40'3 6.1
2017-Oct-12 03:30N 34°60' W 076°41'4 7.7
2017-Oct-12 02:59N 35°02' W 076°37'4 7.7
2017-Oct-12 02:30N 35°04' W 076°33'4 7.6
2017-Oct-12 02:00N 35°08' W 076°30'8 6.7
2017-Oct-12 00:52N 35°14' W 076°35'18 0.5
2017-Oct-10 11:23N 34°57' W 076°40'3 5.4
2017-Oct-10 10:55N 34°54' W 076°40'2 4.8
2017-Oct-10 10:30N 34°53' W 076°42'3 5.3
2017-Oct-10 10:01N 34°50' W 076°41'3 5.2
2017-Oct-10 09:31N 34°47' W 076°41'3 5.3
2017-Oct-10 09:01N 34°45' W 076°41'2 3.2
2017-Oct-10 08:30N 34°43' W 076°42'0 0.0
2017-Oct-10 08:01N 34°43' W 076°42'1 1.1
2017-Oct-10 07:30N 34°44' W 076°42'3 6.0
2017-Oct-10 07:00N 34°47' W 076°41'3 5.5
2017-Oct-10 06:30N 34°50' W 076°41'3 5.0
2017-Oct-10 06:01N 34°52' W 076°42'2 4.3
2017-Oct-10 05:30N 34°54' W 076°41'2 5.0
2017-Oct-10 05:00N 34°56' W 076°39'3 5.9
2017-Oct-10 04:30N 34°59' W 076°42'3 5.9
2017-Oct-10 04:00N 35°01' W 076°39'4 7.0
2017-Oct-10 03:29N 35°03' W 076°36'3 6.9
2017-Oct-10 03:00N 35°05' W 076°32'10 0.5
2017-Oct-09 05:54N 34°58' W 076°41'3 6.9
2017-Oct-09 05:29N 34°56' W 076°39'4 7.2
2017-Oct-09 05:00N 34°52' W 076°41'4 8.2
2017-Oct-09 04:30N 34°48' W 076°41'4 7.2
2017-Oct-09 04:01N 34°45' W 076°41'2 3.5
2017-Oct-09 03:30N 34°43' W 076°42'0 0.0
2017-Oct-09 03:00N 34°43' W 076°42'0 0.1
2017-Oct-09 02:31N 34°43' W 076°42'0 0.0
2017-Oct-09 02:01N 34°43' W 076°42'0 0.0
2017-Oct-09 01:31N 34°43' W 076°42'0 0.0
2017-Oct-09 01:01N 34°43' W 076°42'0 0.0
2017-Oct-09 00:30N 34°43' W 076°42'0 0.0
2017-Oct-09 00:00N 34°43' W 076°42'0 0.0
2017-Oct-08 23:31N 34°43' W 076°42'0 0.0
2017-Oct-08 23:00N 34°43' W 076°42'0 0.0
2017-Oct-08 22:31N 34°43' W 076°42'0 0.0
2017-Oct-08 22:01N 34°43' W 076°42'0 0.0
2017-Oct-08 21:31N 34°43' W 076°42'0 0.0
2017-Oct-08 21:00N 34°43' W 076°42'0 0.0
2017-Oct-08 20:30N 34°43' W 076°42'0 0.0
2017-Oct-08 20:01N 34°43' W 076°42'0 0.0
2017-Oct-08 19:31N 34°43' W 076°42'3 5.0
2017-Oct-08 19:01N 34°46' W 076°41'3 5.6
2017-Oct-08 18:31N 34°48' W 076°41'2 4.8
2017-Oct-08 18:01N 34°51' W 076°41'2 4.5
2017-Oct-08 17:30N 34°53' W 076°41'2 4.1
2017-Oct-08 17:01N 34°55' W 076°40'2 4.7
2017-Oct-08 16:30N 34°57' W 076°40'2 4.8
2017-Oct-08 16:00N 34°59' W 076°41'3 6.6
2017-Oct-08 15:30N 35°02' W 076°38'  

Dump ship's entire track history